Aviation Digital Data Service (ADDS)

Output produced by METARs form (0017 UTC 19 October 2019)
found at http://www.aviationweather.gov/metar/data/
 
Forecast for: ZGHA (HUANGHUA/CHANGSH, CN)
Text: TAF ZGHA 181904Z 1900/1924 31004MPS 6000 NSC TX27/1906Z TN14/1921Z
Forecast period: 0000 UTC 19 October 2019 to 0000 UTC 20 October 2019
Forecast type: FROM: standard forecast or significant change
Winds: from the NW (310 degrees) at 9 MPH (8 knots; 4.1 m/s)
Visibility: 4 miles (6 km)
Ceiling: unknown
Clouds: missing
Weather: no significant weather forecast for this period